Nearby METAR Reports

 

KSFZ - Pawtucket, Rhode Island, USA
Distance from station: S 7mi, 11km
Updated: Mon, 06-Apr-2020 1:56pm EDT
Clear
Clear
 Wind from NNW
Wind: NNW 9 mph , 15 km/h
Temperature: 57°F , 14°C
Dew Point: 23°F , -5°C
Humidity: 27%
Barometer: 29.94 inHg , 1013.9 hPa
Clouds: Clear
Visibility: 10 miles , 16 km
2020/04/06 17:56 KSFZ 061756Z AUTO 33008KT 280V350 10SM CLR 14/M05 A2994 RMK AO2 SLP086 T01391050 10144 20072 58022
KPVD - Providence/Green, Rhode Island, USA
Distance from station: SSE 21mi, 34km
Updated: Mon, 06-Apr-2020 1:51pm EDT
Mostly cloudy
Mostly cloudy
 Wind from varies
Wind: varies 5 mph , 7 km/h
Temperature: 61°F , 16°C
Dew Point: 25°F , -4°C
Humidity: 25%
Barometer: 29.95 inHg , 1014.2 hPa
Clouds: Mostly cloudy
Visibility: 10 miles , 16 km
Cloud details: Few Clouds 8000 ft
Mostly cloudy 30000 ft
2020/04/06 17:51 KPVD 061751Z VRB04KT 10SM FEW080 BKN300 16/M04 A2995 RMK AO2 SLP140 T01561044 10161 20083 58023
 
KORH - Worcester, Massachusetts, USA
Distance from station: NW 25mi, 40km
Updated: Mon, 06-Apr-2020 1:54pm EDT
Clear
Clear
 Wind from NNW
Wind: NNW 12 mph , 19 km/h
Temperature: 57°F , 14°C
Dew Point: 16°F , -9°C
Humidity: 20%
Barometer: 29.94 inHg , 1013.9 hPa
Clouds: Clear
Visibility: 10 miles , 16 km
2020/04/06 17:54 KORH 061754Z 34010KT 10SM CLR 14/M09 A2994 RMK AO2 SLP141 T01391089 10139 20061 58022
KTAN - Taunton, Massachusetts, USA
Distance from station: ESE 28mi, 44km
Updated: Mon, 06-Apr-2020 1:52pm EDT
Clear
Clear
 Wind from varies
Wind: varies 3 mph , 6 km/h
Temperature: 59°F , 15°C
Dew Point: 23°F , -5°C
Humidity: 25%
Barometer: 29.93 inHg , 1013.5 hPa
Clouds: Clear
Visibility: 10 miles , 16 km
2020/04/06 17:52 KTAN 061752Z AUTO VRB03KT 10SM CLR 15/M05 A2993 RMK AO2 SLP136 T01501050 10150 20056 58023
 
KOQU - N. Kingston/Quon, Rhode Island, USA
Distance from station: S 29mi, 47km
Updated: Sun, 05-Apr-2020 5:50pm EDT
NOT Current
Mostly cloudy
Mostly cloudy
 Wind from S
Wind: S 20 mph , 31 km/h
Temperature: 46°F , 8°C
Wind Chill: 38°F , 3°C
Dew Point: 41°F , 5°C
Humidity: 82%
Barometer: 30.00 inHg , 1015.9 hPa
Clouds: Mostly cloudy
Visibility: 10 miles , 16 km
Cloud details: Few Clouds 5000 ft
Mostly cloudy 25000 ft
2020/04/05 21:50 KOQU 052150Z 19017KT 10SM FEW050 BKN250 08/05 A3000 RMK LAST
KBOS - Boston, Massachusetts, USA
Distance from station: NE 35mi, 57km
Updated: Mon, 06-Apr-2020 1:54pm EDT
Mostly cloudy
Mostly cloudy
 Wind from SE
Wind: SE 9 mph , 15 km/h
Temperature: 54°F , 12°C
Dew Point: 32°F , 0°C
Humidity: 44%
Barometer: 29.94 inHg , 1013.9 hPa
Clouds: Mostly cloudy
Visibility: 10 miles , 16 km
Cloud details: Mostly cloudy 25000 ft
2020/04/06 17:54 KBOS 061754Z 13008KT 10SM BKN250 12/00 A2994 RMK AO2 SLP136 T01170000 10133 20083 58024
 
KUUU - Newport, Rhode Island, USA
Distance from station: SSE 36mi, 57km
Updated: Mon, 06-Apr-2020 1:53pm EDT
Clear
Clear
 Wind from N
Wind: N 9 mph , 15 km/h, Gust: 16 mph , 26 km/h
Temperature: 59°F , 15°C
Dew Point: 25°F , -4°C
Humidity: 27%
Barometer: 29.95 inHg , 1014.2 hPa
Clouds: Clear
Visibility: 10 miles , 16 km
2020/04/06 17:53 KUUU 061753Z AUTO 01008G14KT 10SM CLR 15/M04 A2995 RMK AO2 SLP140 T01501044 10156 20083 58020
KPYM - Plymouth, Massachusetts, USA
Distance from station: E 41mi, 66km
Updated: Mon, 06-Apr-2020 1:52pm EDT
Clear
Clear
 Wind from ENE
Wind: ENE 9 mph , 15 km/h
Temperature: 55°F , 13°C
Dew Point: 25°F , -4°C
Humidity: 31%
Barometer: 29.94 inHg , 1013.9 hPa
Clouds: Clear
Visibility: 10 miles , 16 km
2020/04/06 17:52 KPYM 061752Z AUTO 07008KT 10SM CLR 13/M04 A2994 RMK AO2 SLP140 T01281044 10128 20078 58018
 
KWST - Westerly, Rhode Island, USA
Distance from station: SSW 48mi, 78km
Updated: Mon, 06-Apr-2020 1:53pm EDT
Clear
Clear
 Wind from SW
Wind: SW 13 mph , 20 km/h
Temperature: 61°F , 16°C
Dew Point: 36°F , 2°C
Humidity: 39%
Barometer: 29.96 inHg , 1014.6 hPa
Clouds: Clear
Visibility: 10 miles , 16 km
2020/04/06 17:53 KWST 061753Z AUTO 22011KT 10SM CLR 16/02 A2996 RMK AO2 SLP144 T01560022 10172 20100 58021